Time;durP1;ratioP1;P1;durP2;ratioP2;P2;SDS_P1;SDS_P2;PMS_P1;PMS_P2;Temp;Humidity;BMP_temperature;BMP_pressure;BME280_temperature;BME280_humidity;BME280_pressure;Samples;Min_cycle;Max_cycle;Signal;HPM_P1;HPM_P2
2021/05/27 00:00:05;;;;;;;19.97;9.40;;;10.90;99.90;;;;;;6233513;23;20617;-79
2021/05/27 00:02:31;;;;;;;23.97;9.00;;;10.80;99.90;;;;;;6235093;23;20170;-78
2021/05/27 00:04:58;;;;;;;24.83;10.03;;;10.80;99.90;;;;;;6234641;23;20197;-77
2021/05/27 00:07:24;;;;;;;21.83;10.00;;;10.80;99.90;;;;;;6235630;23;20593;-84
2021/05/27 00:09:50;;;;;;;20.47;9.03;;;10.80;99.90;;;;;;6236173;23;20177;-82
2021/05/27 00:12:17;;;;;;;24.30;9.17;;;10.80;99.90;;;;;;6237085;23;20188;-82
2021/05/27 00:14:43;;;;;;;22.30;9.13;;;10.80;99.90;;;;;;6236065;23;20173;-76
2021/05/27 00:17:10;;;;;;;19.97;8.73;;;10.80;99.90;;;;;;6235094;23;20176;-83
2021/05/27 00:19:37;;;;;;;22.17;9.90;;;10.70;99.90;;;;;;6234657;23;20173;-80
2021/05/27 00:22:03;;;;;;;20.80;8.83;;;10.80;99.90;;;;;;6234976;23;20173;-79
2021/05/27 00:24:30;;;;;;;24.77;11.50;;;10.80;99.90;;;;;;6235997;23;20190;-79
2021/05/27 00:26:56;;;;;;;25.37;9.77;;;10.80;99.90;;;;;;6234522;23;20578;-79
2021/05/27 00:29:22;;;;;;;31.73;11.30;;;10.80;99.90;;;;;;6236340;23;20173;-79
2021/05/27 00:31:48;;;;;;;33.50;11.77;;;10.80;99.90;;;;;;6235439;23;20181;-76
2021/05/27 00:34:16;;;;;;;26.60;10.10;;;10.80;99.90;;;;;;6234105;23;20181;-78
2021/05/27 00:36:42;;;;;;;31.63;10.93;;;10.80;99.90;;;;;;6236545;23;20201;-81
2021/05/27 00:39:08;;;;;;;26.00;10.17;;;10.80;99.90;;;;;;6236046;23;20185;-79
2021/05/27 00:41:35;;;;;;;24.87;8.80;;;10.80;99.90;;;;;;6235357;23;20184;-84
2021/05/27 00:44:01;;;;;;;24.67;9.17;;;10.80;99.90;;;;;;6234636;23;20196;-78
2021/05/27 00:46:27;;;;;;;23.70;9.37;;;10.80;99.90;;;;;;6235282;23;20240;-81
2021/05/27 00:48:57;;;;;;;25.67;9.93;;;10.70;99.90;;;;;;6235069;23;20184;-79
2021/05/27 00:51:25;;;;;;;17.47;9.20;;;10.70;99.90;;;;;;6234337;23;20510;-78
2021/05/27 00:53:51;;;;;;;31.23;10.57;;;10.80;99.90;;;;;;6234263;23;20173;-77
2021/05/27 00:56:17;;;;;;;24.53;10.83;;;10.70;99.90;;;;;;6233250;23;20177;-77
2021/05/27 00:58:45;;;;;;;24.80;9.87;;;10.70;99.90;;;;;;6233270;22;20207;-80
2021/05/27 01:01:11;;;;;;;23.83;10.20;;;10.70;99.90;;;;;;6232922;23;20177;-78
2021/05/27 01:03:37;;;;;;;23.60;10.27;;;10.70;99.90;;;;;;6234901;23;20657;-83
2021/05/27 01:06:04;;;;;;;31.63;9.67;;;10.70;99.90;;;;;;6233140;23;20173;-78
2021/05/27 01:08:31;;;;;;;31.87;10.77;;;10.70;99.90;;;;;;6235188;23;20180;-85
2021/05/27 01:10:58;;;;;;;27.80;10.03;;;10.70;99.90;;;;;;6234482;23;20177;-80
2021/05/27 01:13:25;;;;;;;28.40;9.93;;;10.70;99.90;;;;;;6234312;23;20227;-79
2021/05/27 01:15:51;;;;;;;23.80;10.30;;;10.70;99.90;;;;;;6233147;23;20256;-76
2021/05/27 01:18:19;;;;;;;27.10;10.30;;;10.70;99.90;;;;;;6233714;23;20174;-80
2021/05/27 01:20:47;;;;;;;28.63;9.43;;;10.60;99.90;;;;;;6233856;23;20182;-77
2021/05/27 01:23:14;;;;;;;29.73;10.80;;;10.70;99.90;;;;;;6233301;23;20602;-84
2021/05/27 01:25:41;;;;;;;24.33;9.47;;;10.70;99.90;;;;;;6233866;23;20185;-77
2021/05/27 01:28:07;;;;;;;22.67;9.67;;;10.60;99.90;;;;;;6234487;23;20528;-80
2021/05/27 01:30:34;;;;;;;26.73;10.67;;;10.70;99.90;;;;;;6232821;23;20181;-79
2021/05/27 01:33:00;;;;;;;24.37;9.47;;;10.60;99.90;;;;;;6233609;23;20173;-80
2021/05/27 01:35:27;;;;;;;19.20;8.63;;;10.60;99.90;;;;;;6235053;23;20184;-81
2021/05/27 01:37:54;;;;;;;25.63;9.37;;;10.70;99.90;;;;;;6236003;23;20239;-81
2021/05/27 01:40:24;;;;;;;18.87;9.60;;;10.60;99.90;;;;;;6239816;23;20173;-84
2021/05/27 01:42:50;;;;;;;28.67;9.20;;;10.60;99.90;;;;;;6238432;23;20224;-81
2021/05/27 01:45:18;;;;;;;31.93;9.77;;;10.60;99.90;;;;;;6235379;23;20235;-77
2021/05/27 01:47:45;;;;;;;23.13;10.33;;;10.60;99.90;;;;;;6234507;23;20177;-77
2021/05/27 01:50:20;;;;;;;29.03;11.07;;;10.50;99.90;;;;;;6235662;23;20199;-78
2021/05/27 01:52:46;;;;;;;25.73;10.27;;;10.60;99.90;;;;;;6235506;23;20179;-80
2021/05/27 01:55:13;;;;;;;24.60;10.67;;;10.60;99.90;;;;;;6237288;23;20173;-77
2021/05/27 01:57:40;;;;;;;29.70;9.97;;;10.60;99.90;;;;;;6234644;22;20199;-78
2021/05/27 02:00:08;;;;;;;21.80;9.20;;;10.60;99.90;;;;;;6236119;23;20633;-82
2021/05/27 02:02:34;;;;;;;30.47;11.07;;;10.60;99.90;;;;;;6238445;23;20456;-82
2021/05/27 02:05:01;;;;;;;31.80;10.53;;;10.60;99.90;;;;;;6241386;22;20193;-77
2021/05/27 02:07:28;;;;;;;25.33;11.40;;;10.60;99.90;;;;;;6268756;22;20176;-83
2021/05/27 02:09:54;;;;;;;22.10;9.07;;;10.60;99.90;;;;;;6268067;22;20180;-79
2021/05/27 02:12:21;;;;;;;22.17;10.00;;;10.60;99.90;;;;;;6266216;22;20172;-78
2021/05/27 02:14:48;;;;;;;29.53;10.40;;;10.60;99.90;;;;;;6267230;22;20196;-81
2021/05/27 02:17:14;;;;;;;28.20;10.90;;;10.60;99.90;;;;;;6267239;22;20173;-80
2021/05/27 02:19:41;;;;;;;26.70;11.20;;;10.60;99.90;;;;;;6267096;22;20180;-79
2021/05/27 02:22:08;;;;;;;28.60;10.03;;;10.60;99.90;;;;;;6264832;22;20200;-80
2021/05/27 02:24:34;;;;;;;22.47;10.30;;;10.60;99.90;;;;;;6265853;22;20664;-79
2021/05/27 02:27:00;;;;;;;22.73;8.27;;;10.60;99.90;;;;;;6266935;22;20596;-77
2021/05/27 02:29:26;;;;;;;23.27;9.00;;;10.60;99.90;;;;;;6265918;22;20448;-81
2021/05/27 02:31:53;;;;;;;21.27;8.47;;;10.50;99.90;;;;;;6265926;22;20169;-78
2021/05/27 02:34:20;;;;;;;26.57;9.60;;;10.60;99.90;;;;;;6265702;22;20173;-78
2021/05/27 02:36:46;;;;;;;23.73;9.37;;;10.60;99.90;;;;;;6265735;22;20460;-78
2021/05/27 02:39:13;;;;;;;26.60;11.67;;;10.50;99.90;;;;;;6267173;22;20176;-82
2021/05/27 02:41:40;;;;;;;36.33;11.50;;;10.50;99.90;;;;;;6266658;22;20184;-80
2021/05/27 02:44:07;;;;;;;22.00;9.63;;;10.50;99.90;;;;;;6266933;22;20258;-79
2021/05/27 02:46:33;;;;;;;24.87;10.57;;;10.50;99.90;;;;;;6266006;22;20177;-77
2021/05/27 02:49:00;;;;;;;24.37;10.23;;;10.60;99.90;;;;;;6264444;22;20641;-79
2021/05/27 02:51:28;;;;;;;26.23;9.30;;;10.60;99.90;;;;;;6264310;22;20656;-77
2021/05/27 02:53:54;;;;;;;22.00;9.97;;;10.60;99.90;;;;;;6264450;22;20484;-79
2021/05/27 02:56:21;;;;;;;30.33;10.47;;;10.60;99.90;;;;;;6266233;22;20190;-79
2021/05/27 02:58:47;;;;;;;28.00;10.07;;;10.60;99.90;;;;;;6265210;22;20172;-78
2021/05/27 03:01:14;;;;;;;25.27;10.10;;;10.60;99.90;;;;;;6264756;22;20176;-79
2021/05/27 03:03:40;;;;;;;36.67;10.53;;;10.60;99.90;;;;;;6266488;22;20197;-82
2021/05/27 03:06:07;;;;;;;30.20;10.10;;;10.60;99.90;;;;;;6266472;22;20258;-79
2021/05/27 03:08:34;;;;;;;30.63;9.80;;;10.60;99.90;;;;;;6265138;22;20172;-79
2021/05/27 03:11:01;;;;;;;27.00;10.03;;;10.60;99.90;;;;;;6266488;22;20229;-80
2021/05/27 03:13:27;;;;;;;32.07;9.93;;;10.60;99.90;;;;;;6266409;22;20169;-80
2021/05/27 03:15:53;;;;;;;29.23;10.20;;;10.60;99.90;;;;;;6265341;22;20176;-78
2021/05/27 03:18:20;;;;;;;26.63;8.27;;;10.60;99.90;;;;;;6265955;22;20177;-80
2021/05/27 03:20:46;;;;;;;29.07;9.10;;;10.60;99.90;;;;;;6266070;22;20177;-81
2021/05/27 03:23:14;;;;;;;29.43;9.30;;;10.50;99.90;;;;;;6265362;22;20177;-80
2021/05/27 03:25:40;;;;;;;28.17;10.07;;;10.60;99.90;;;;;;6266078;22;20177;-80
2021/05/27 03:28:07;;;;;;;29.57;9.27;;;10.50;99.90;;;;;;6265529;22;20183;-78
2021/05/27 03:30:33;;;;;;;29.67;10.50;;;10.50;99.90;;;;;;6265247;22;20613;-78
2021/05/27 03:32:59;;;;;;;22.73;8.30;;;10.60;99.90;;;;;;6266729;22;20172;-79
2021/05/27 03:35:26;;;;;;;28.47;9.40;;;10.60;99.90;;;;;;6265167;22;20173;-80
2021/05/27 03:37:52;;;;;;;25.63;8.67;;;10.50;99.90;;;;;;6266776;22;20169;-81
2021/05/27 03:40:19;;;;;;;29.23;9.03;;;10.60;99.90;;;;;;6266197;22;20203;-78
2021/05/27 03:42:48;;;;;;;24.23;9.10;;;10.60;99.90;;;;;;6266382;22;20732;-80
2021/05/27 03:45:16;;;;;;;25.73;9.17;;;10.60;99.90;;;;;;6264620;22;20211;-79
2021/05/27 03:47:42;;;;;;;27.83;8.90;;;10.60;99.90;;;;;;6265209;22;20177;-78
2021/05/27 03:50:12;;;;;;;33.70;9.50;;;10.60;99.90;;;;;;6263562;22;20184;-78
2021/05/27 03:52:38;;;;;;;27.67;9.13;;;10.60;99.90;;;;;;6265156;22;20180;-79
2021/05/27 03:55:09;;;;;;;29.93;9.67;;;10.50;99.90;;;;;;6265629;22;20443;-81
2021/05/27 03:57:36;;;;;;;30.53;8.57;;;10.60;99.90;;;;;;6264137;22;20713;-78
2021/05/27 04:02:50;;;;;;;25.40;9.33;;;10.50;99.90;;;;;;6264415;22;20171;-79
2021/05/27 04:08:01;;;;;;;27.43;8.17;;;10.50;99.90;;;;;;6264073;22;20179;-78
2021/05/27 04:10:27;;;;;;;27.50;7.93;;;10.50;99.90;;;;;;6264563;22;20175;-80
2021/05/27 04:12:54;;;;;;;25.83;8.57;;;10.50;99.90;;;;;;6263704;22;20218;-79
2021/05/27 04:15:23;;;;;;;24.40;9.13;;;10.50;99.90;;;;;;6264534;22;20842;-80
2021/05/27 04:17:54;;;;;;;26.67;8.83;;;10.50;99.90;;;;;;6264429;22;20177;-78
2021/05/27 04:20:21;;;;;;;20.13;8.27;;;10.50;99.90;;;;;;6263848;22;20684;-80
2021/05/27 04:22:48;;;;;;;19.73;7.50;;;10.50;99.90;;;;;;6265060;22;20708;-80
2021/05/27 04:25:16;;;;;;;25.47;8.03;;;10.50;99.90;;;;;;6264231;22;20519;-81
2021/05/27 04:27:44;;;;;;;21.60;7.27;;;10.50;99.90;;;;;;6264674;22;20187;-78
2021/05/27 04:30:14;;;;;;;26.60;8.73;;;10.50;99.90;;;;;;6264234;22;20173;-78
2021/05/27 04:32:55;;;;;;;26.33;8.23;;;10.50;99.90;;;;;;6264386;22;20644;-79
2021/05/27 04:35:24;;;;;;;22.33;7.47;;;10.50;99.90;;;;;;6264679;22;20732;-77
2021/05/27 04:37:51;;;;;;;20.33;7.77;;;10.50;99.90;;;;;;6264204;22;20596;-78
2021/05/27 04:40:18;;;;;;;18.17;7.67;;;10.50;99.90;;;;;;6264142;22;20685;-79
2021/05/27 04:42:44;;;;;;;20.40;7.57;;;10.50;99.90;;;;;;6264272;22;20550;-78
2021/05/27 04:45:13;;;;;;;17.03;6.03;;;10.50;99.90;;;;;;6264040;22;20203;-79
2021/05/27 04:47:39;;;;;;;21.63;6.83;;;10.50;99.90;;;;;;6263609;22;20173;-79
2021/05/27 04:50:08;;;;;;;23.57;7.13;;;10.50;99.90;;;;;;6264732;22;20176;-78
2021/05/27 04:52:35;;;;;;;22.70;7.47;;;10.50;99.90;;;;;;6264344;22;20187;-79
2021/05/27 04:55:01;;;;;;;20.93;7.50;;;10.50;99.90;;;;;;6263565;22;20168;-78
2021/05/27 04:57:27;;;;;;;23.57;6.30;;;10.50;99.90;;;;;;6263826;22;20402;-77
2021/05/27 04:59:54;;;;;;;23.03;6.97;;;10.50;99.90;;;;;;6265112;22;20180;-79
2021/05/27 05:02:21;;;;;;;22.43;6.17;;;10.50;99.90;;;;;;6265197;22;20177;-79
2021/05/27 05:04:47;;;;;;;17.20;6.53;;;10.50;99.90;;;;;;6264686;22;20632;-81
2021/05/27 05:07:13;;;;;;;18.10;6.50;;;10.60;99.90;;;;;;6264210;22;20207;-78
2021/05/27 05:09:39;;;;;;;17.83;7.00;;;10.50;99.90;;;;;;6264175;22;20184;-78
2021/05/27 05:12:07;;;;;;;24.13;8.23;;;10.50;99.90;;;;;;6263680;22;20177;-78
2021/05/27 05:14:33;;;;;;;24.93;8.03;;;10.50;99.90;;;;;;6265146;22;20180;-78
2021/05/27 05:16:59;;;;;;;26.10;7.57;;;10.50;99.90;;;;;;6266248;22;20173;-78
2021/05/27 05:19:26;;;;;;;24.40;7.70;;;10.50;99.90;;;;;;6266147;22;20173;-77
2021/05/27 05:21:52;;;;;;;24.83;7.77;;;10.50;99.90;;;;;;6265031;22;20176;-77
2021/05/27 05:24:19;;;;;;;23.23;7.27;;;10.60;99.90;;;;;;6266493;22;20254;-76
2021/05/27 05:26:45;;;;;;;26.43;7.93;;;10.60;99.90;;;;;;6266665;22;20196;-77
2021/05/27 05:29:11;;;;;;;25.50;7.20;;;10.60;99.90;;;;;;6265665;22;20663;-79
2021/05/27 05:31:37;;;;;;;27.60;8.13;;;10.60;99.90;;;;;;6266971;22;20176;-78
2021/05/27 05:34:03;;;;;;;26.77;7.40;;;10.60;99.90;;;;;;6264908;22;20176;-80
2021/05/27 05:36:31;;;;;;;18.50;7.40;;;10.50;99.90;;;;;;6265882;22;20613;-78
2021/05/27 05:38:57;;;;;;;19.13;7.03;;;10.50;99.90;;;;;;6266326;22;20173;-80
2021/05/27 05:41:23;;;;;;;20.87;7.53;;;10.50;99.90;;;;;;6264999;22;20180;-81
2021/05/27 05:43:50;;;;;;;19.30;7.70;;;10.50;99.90;;;;;;6264344;22;20189;-77
2021/05/27 05:46:16;;;;;;;19.53;7.90;;;10.50;99.90;;;;;;6266696;22;20181;-78
2021/05/27 05:48:42;;;;;;;26.40;8.03;;;10.50;99.90;;;;;;6266756;22;20188;-79
2021/05/27 05:51:09;;;;;;;24.13;7.50;;;10.50;99.90;;;;;;6265759;22;20173;-79
2021/05/27 05:53:36;;;;;;;22.70;7.27;;;10.50;99.90;;;;;;6265928;22;20172;-78
2021/05/27 05:56:04;;;;;;;20.53;7.57;;;10.50;99.90;;;;;;6264617;22;20180;-77
2021/05/27 05:58:30;;;;;;;29.63;8.83;;;10.50;99.90;;;;;;6265704;22;20168;-79
2021/05/27 06:00:57;;;;;;;24.13;8.90;;;10.50;99.90;;;;;;6266838;22;20445;-79
2021/05/27 06:03:23;;;;;;;26.40;7.40;;;10.50;99.90;;;;;;6266324;22;20215;-78
2021/05/27 06:05:50;;;;;;;24.47;8.47;;;10.60;99.90;;;;;;6265273;22;20223;-78
2021/05/27 06:08:16;;;;;;;29.10;8.37;;;10.60;99.90;;;;;;6265873;22;20844;-77
2021/05/27 06:10:44;;;;;;;22.37;8.13;;;10.60;99.90;;;;;;6263882;22;20195;-77
2021/05/27 06:13:11;;;;;;;28.30;9.20;;;10.60;99.90;;;;;;6265774;22;20172;-78
2021/05/27 06:15:40;;;;;;;26.40;8.50;;;10.60;99.90;;;;;;6265816;22;20169;-80
2021/05/27 06:18:06;;;;;;;26.30;8.53;;;10.60;99.90;;;;;;6265122;22;20215;-76
2021/05/27 06:20:33;;;;;;;23.87;7.73;;;10.60;99.90;;;;;;6265689;22;20180;-77
2021/05/27 06:22:59;;;;;;;24.27;7.40;;;10.70;99.90;;;;;;6265492;22;20180;-79
2021/05/27 06:25:26;;;;;;;26.70;7.57;;;10.70;99.90;;;;;;6265979;22;20251;-78
2021/05/27 06:27:55;;;;;;;24.67;8.33;;;10.70;99.90;;;;;;6265489;22;20177;-77
2021/05/27 06:30:24;;;;;;;19.97;7.87;;;10.60;99.90;;;;;;6265540;22;20546;-77
2021/05/27 06:32:51;;;;;;;27.30;8.07;;;10.70;99.90;;;;;;6265005;22;20168;-78
2021/05/27 06:35:18;;;;;;;24.57;8.93;;;10.70;99.90;;;;;;6266054;22;20179;-80
2021/05/27 06:37:44;;;;;;;30.90;8.37;;;10.70;99.90;;;;;;6265954;22;20679;-79
2021/05/27 06:40:13;;;;;;;19.27;7.33;;;10.70;99.90;;;;;;6266315;22;20180;-77
2021/05/27 06:42:42;;;;;;;20.17;6.87;;;10.70;99.90;;;;;;6266357;22;20176;-77
2021/05/27 06:45:38;;;;;;;27.87;8.70;;;10.70;99.90;;;;;;6202623;22;20219;-79
2021/05/27 06:48:06;;;;;;;15.97;6.43;;;10.70;99.90;;;;;;6265743;22;20177;-77
2021/05/27 06:50:33;;;;;;;20.23;7.03;;;10.70;99.90;;;;;;6265311;22;20178;-77
2021/05/27 06:53:00;;;;;;;18.30;6.57;;;10.70;99.90;;;;;;6265189;22;20611;-78
2021/05/27 06:55:27;;;;;;;14.20;6.47;;;10.70;99.90;;;;;;6265385;22;20172;-79
2021/05/27 06:57:53;;;;;;;21.87;7.27;;;10.70;99.90;;;;;;6263941;22;20168;-80
2021/05/27 07:00:21;;;;;;;20.70;7.50;;;10.70;99.90;;;;;;6264600;22;20264;-77
2021/05/27 07:03:30;;;;;;;19.53;6.73;;;10.70;99.90;;;;;;6201640;22;20208;-77
2021/05/27 07:05:59;;;;;;;20.83;7.57;;;10.80;99.90;;;;;;6263429;22;20200;-79
2021/05/27 07:08:26;;;;;;;22.03;7.23;;;10.80;99.90;;;;;;6262187;22;20173;-77
2021/05/27 07:10:52;;;;;;;23.57;7.83;;;10.90;99.90;;;;;;6263456;22;20212;-79
2021/05/27 07:13:19;;;;;;;29.07;8.50;;;10.80;99.90;;;;;;6262486;22;20444;-79
2021/05/27 07:15:45;;;;;;;25.27;7.80;;;10.90;99.90;;;;;;6263286;22;20180;-79
2021/05/27 07:18:11;;;;;;;20.57;7.47;;;10.80;99.90;;;;;;6262954;22;20183;-80
2021/05/27 07:20:39;;;;;;;28.57;7.87;;;10.80;99.90;;;;;;6262350;22;20177;-80
2021/05/27 07:23:06;;;;;;;23.77;8.13;;;10.80;99.90;;;;;;6261289;22;20179;-81
2021/05/27 07:25:32;;;;;;;32.03;10.93;;;10.80;99.90;;;;;;6262032;22;20223;-80
2021/05/27 07:27:59;;;;;;;20.57;8.23;;;10.80;99.90;;;;;;6260916;22;20168;-80
2021/05/27 07:30:26;;;;;;;30.13;8.70;;;10.80;99.90;;;;;;6262240;22;20175;-79
2021/05/27 07:32:53;;;;;;;26.57;7.53;;;10.80;99.90;;;;;;6262208;22;20204;-76
2021/05/27 07:35:19;;;;;;;29.33;9.47;;;10.90;99.90;;;;;;6263122;22;20173;-77
2021/05/27 07:37:45;;;;;;;30.00;9.10;;;10.90;99.90;;;;;;6262503;22;20192;-77
2021/05/27 07:40:13;;;;;;;28.90;8.33;;;10.80;99.90;;;;;;6262869;22;20255;-77
2021/05/27 07:42:39;;;;;;;25.90;8.00;;;10.80;99.90;;;;;;6263021;22;20183;-79
2021/05/27 07:45:07;;;;;;;23.30;9.17;;;10.90;99.90;;;;;;6264213;22;20196;-78
2021/05/27 07:47:34;;;;;;;27.93;7.63;;;10.90;99.90;;;;;;6263568;22;20172;-76
2021/05/27 07:50:01;;;;;;;23.20;8.17;;;10.90;99.90;;;;;;6263030;22;20183;-76
2021/05/27 07:52:28;;;;;;;20.80;7.47;;;10.90;99.90;;;;;;6264249;22;20177;-78
2021/05/27 07:54:54;;;;;;;19.87;6.77;;;10.90;99.90;;;;;;6264794;22;20175;-78
2021/05/27 07:57:22;;;;;;;14.83;6.37;;;10.90;99.90;;;;;;6264140;22;20581;-79
2021/05/27 07:59:48;;;;;;;20.30;6.57;;;11.00;99.90;;;;;;6264077;22;20168;-79
2021/05/27 08:02:15;;;;;;;19.37;6.20;;;11.10;99.90;;;;;;6265327;22;20172;-78
2021/05/27 08:04:42;;;;;;;19.77;6.10;;;11.20;99.90;;;;;;6263197;22;20223;-76
2021/05/27 08:07:09;;;;;;;15.17;6.43;;;11.20;99.90;;;;;;6205027;22;1349980;-77
2021/05/27 08:09:35;;;;;;;20.43;5.33;;;11.20;99.90;;;;;;6264053;22;20173;-77
2021/05/27 08:12:01;;;;;;;21.60;5.77;;;11.10;99.90;;;;;;6263447;22;20436;-78
2021/05/27 08:14:28;;;;;;;22.77;6.37;;;11.10;99.90;;;;;;6264376;22;20165;-77
2021/05/27 08:16:55;;;;;;;21.70;6.93;;;11.10;99.90;;;;;;6263944;22;20173;-80
2021/05/27 08:19:21;;;;;;;20.80;6.63;;;11.10;99.90;;;;;;6263253;22;20169;-78
2021/05/27 08:21:48;;;;;;;28.27;7.33;;;11.10;99.90;;;;;;6263168;22;20165;-79
2021/05/27 08:24:14;;;;;;;24.17;6.90;;;11.10;99.90;;;;;;6264331;22;20208;-80
2021/05/27 08:26:40;;;;;;;21.37;6.20;;;11.10;99.90;;;;;;6265799;22;20518;-80
2021/05/27 08:29:06;;;;;;;17.57;6.60;;;11.10;99.90;;;;;;6265164;22;20506;-77
2021/05/27 08:31:38;;;;;;;21.83;7.07;;;11.10;99.90;;;;;;6263692;22;20872;-79
2021/05/27 08:34:05;;;;;;;19.80;7.07;;;11.10;99.90;;;;;;6266007;22;20165;-79
2021/05/27 08:36:31;;;;;;;23.83;7.47;;;11.10;99.90;;;;;;6266624;22;20196;-81
2021/05/27 08:38:58;;;;;;;24.97;7.30;;;11.10;99.90;;;;;;6263682;22;20172;-78
2021/05/27 08:41:24;;;;;;;18.30;6.90;;;11.20;99.90;;;;;;6264520;22;20177;-82
2021/05/27 08:43:51;;;;;;;20.10;7.37;;;11.20;99.90;;;;;;6264057;22;20165;-77
2021/05/27 08:46:21;;;;;;;16.77;6.80;;;11.20;99.90;;;;;;6263734;22;20168;-78
2021/05/27 08:48:48;;;;;;;22.73;7.30;;;11.30;99.90;;;;;;6264860;22;20176;-77
2021/05/27 08:51:15;;;;;;;26.07;8.20;;;11.30;99.90;;;;;;6268247;22;20492;-78
2021/05/27 08:53:42;;;;;;;21.73;7.30;;;11.30;99.90;;;;;;6265860;22;20210;-78
2021/05/27 08:56:08;;;;;;;19.70;6.93;;;11.20;99.90;;;;;;6267337;22;20290;-79
2021/05/27 08:58:35;;;;;;;19.63;6.97;;;11.30;99.90;;;;;;6266647;22;20165;-80
2021/05/27 09:01:01;;;;;;;18.03;8.37;;;11.30;99.90;;;;;;6267612;22;20169;-78
2021/05/27 09:03:38;;;;;;;23.97;7.43;;;11.30;99.90;;;;;;6267604;22;20177;-79
2021/05/27 09:06:06;;;;;;;22.93;7.87;;;11.30;99.90;;;;;;6267428;22;20200;-79
2021/05/27 09:08:34;;;;;;;21.13;8.37;;;11.30;99.90;;;;;;6267399;22;20181;-77
2021/05/27 09:11:02;;;;;;;17.33;7.43;;;11.20;99.90;;;;;;6265912;22;20180;-79
2021/05/27 09:13:29;;;;;;;21.80;8.27;;;11.20;99.90;;;;;;6263719;22;20566;-78
2021/05/27 09:16:06;;;;;;;23.47;7.83;;;11.20;99.90;;;;;;6266559;22;20168;-77
2021/05/27 09:18:33;;;;;;;23.60;7.77;;;11.20;99.90;;;;;;6266214;22;20168;-78
2021/05/27 09:21:00;;;;;;;24.07;7.67;;;11.20;99.90;;;;;;6264450;22;20491;-77
2021/05/27 09:23:28;;;;;;;23.10;8.23;;;11.20;99.90;;;;;;6265074;22;20177;-78
2021/05/27 09:25:58;;;;;;;17.17;7.17;;;11.20;99.90;;;;;;6265233;22;20265;-78
2021/05/27 09:28:27;;;;;;;27.80;8.80;;;11.20;99.90;;;;;;6264895;22;20238;-77
2021/05/27 09:30:56;;;;;;;14.33;6.77;;;11.20;99.90;;;;;;6266398;22;20204;-77
2021/05/27 09:33:30;;;;;;;17.57;7.60;;;11.20;99.90;;;;;;6264565;22;20283;-80
2021/05/27 09:36:05;;;;;;;17.83;6.27;;;11.20;99.90;;;;;;6262967;22;20519;-77
2021/05/27 09:38:34;;;;;;;14.83;6.50;;;11.20;99.90;;;;;;6264526;22;20171;-78
2021/05/27 09:41:14;;;;;;;22.83;7.03;;;11.20;99.90;;;;;;6264554;22;20169;-78
2021/05/27 09:43:41;;;;;;;16.77;6.47;;;11.30;99.90;;;;;;6263933;22;20219;-76
2021/05/27 09:46:07;;;;;;;23.90;7.73;;;11.30;99.90;;;;;;6265049;22;20206;-77
2021/05/27 09:48:35;;;;;;;23.33;6.53;;;11.40;99.90;;;;;;6264281;22;20389;-77
2021/05/27 09:51:01;;;;;;;26.33;6.80;;;11.50;99.90;;;;;;6265215;22;20177;-77
2021/05/27 09:53:31;;;;;;;19.50;7.07;;;11.60;99.90;;;;;;6265427;22;20268;-76
2021/05/27 09:56:00;;;;;;;25.80;8.50;;;11.80;99.90;;;;;;6263642;22;20616;-76
2021/05/27 09:58:27;;;;;;;30.37;8.20;;;12.00;99.90;;;;;;6265908;22;20398;-77
2021/05/27 10:00:54;;;;;;;25.73;7.50;;;12.20;99.90;;;;;;6263901;22;20192;-77
2021/05/27 10:03:39;;;;;;;28.90;9.17;;;12.50;99.90;;;;;;6264038;22;20214;-77
2021/05/27 10:06:07;;;;;;;24.63;7.00;;;12.80;99.90;;;;;;6264063;22;20289;-76
2021/05/27 10:08:52;;;;;;;27.67;8.60;;;13.00;99.90;;;;;;6264996;22;20264;-80
2021/05/27 10:11:21;;;;;;;21.67;6.00;;;13.20;99.90;;;;;;6263201;22;20177;-77
2021/05/27 10:13:48;;;;;;;20.33;7.07;;;13.20;99.90;;;;;;6265776;22;20173;-77
2021/05/27 10:16:16;;;;;;;24.13;7.60;;;13.10;99.90;;;;;;6265767;22;20268;-78
2021/05/27 10:18:43;;;;;;;19.30;6.27;;;13.10;99.90;;;;;;6265799;22;20179;-78
2021/05/27 10:21:11;;;;;;;25.10;7.27;;;13.10;99.90;;;;;;6265057;22;20184;-80
2021/05/27 10:23:38;;;;;;;18.00;5.77;;;13.00;99.90;;;;;;6266290;22;20215;-78
2021/05/27 10:26:05;;;;;;;17.87;5.60;;;13.00;99.90;;;;;;6267189;22;20201;-77
2021/05/27 10:28:33;;;;;;;20.70;5.37;;;12.90;99.90;;;;;;6273039;22;20691;-78
2021/05/27 10:31:00;;;;;;;22.17;5.77;;;12.80;99.90;;;;;;6273434;22;20570;-77
2021/05/27 10:33:27;;;;;;;24.20;6.17;;;12.70;99.90;;;;;;6271826;22;20169;-78
2021/05/27 10:35:56;;;;;;;17.03;5.43;;;12.70;99.90;;;;;;6269055;22;20235;-76
2021/05/27 10:38:47;;;;;;;16.70;4.33;;;12.60;99.90;;;;;;6264063;22;20172;-79
2021/05/27 10:41:15;;;;;;;13.40;4.03;;;12.60;99.90;;;;;;6265889;22;20195;-77
2021/05/27 10:44:14;;;;;;;16.17;3.90;;;12.70;99.90;;;;;;6265759;22;20207;-78
2021/05/27 10:47:07;;;;;;;13.40;4.17;;;13.10;99.90;;;;;;6264227;22;20165;-77
2021/05/27 10:49:53;;;;;;;12.70;3.37;;;13.40;99.90;;;;;;6263963;22;20161;-76
2021/05/27 10:52:41;;;;;;;8.30;3.43;;;13.60;99.90;;;;;;6263629;22;20230;-78
2021/05/27 10:55:43;;;;;;;9.90;2.40;;;13.70;99.90;;;;;;6263765;22;20211;-78
2021/05/27 10:58:09;;;;;;;9.17;2.60;;;13.80;99.90;;;;;;6264639;22;20452;-77
2021/05/27 11:00:50;;;;;;;14.10;3.10;;;14.10;99.90;;;;;;6264610;22;20945;-77
2021/05/27 11:03:43;;;;;;;12.33;3.30;;;14.20;99.90;;;;;;6266150;22;20176;-76
2021/05/27 11:06:34;;;;;;;10.00;3.10;;;14.10;99.90;;;;;;6263944;22;20240;-77
2021/05/27 11:09:31;;;;;;;8.90;2.60;;;14.10;99.90;;;;;;6263235;22;20511;-77
2021/05/27 11:12:09;;;;;;;8.97;2.33;;;14.40;99.90;;;;;;6265223;22;20169;-76
2021/05/27 11:14:39;;;;;;;11.93;2.73;;;14.70;99.90;;;;;;6265041;22;20184;-77
2021/05/27 11:17:24;;;;;;;5.10;1.97;;;15.00;99.90;;;;;;6265058;22;20492;-78
2021/05/27 11:19:54;;;;;;;9.57;2.13;;;15.10;99.90;;;;;;6264694;22;20169;-77
2021/05/27 11:22:47;;;;;;;11.50;2.67;;;15.10;99.90;;;;;;6264183;22;20169;-80
2021/05/27 11:25:24;;;;;;;6.97;2.57;;;15.50;99.90;;;;;;6265425;22;20258;-77
2021/05/27 11:27:53;;;;;;;8.80;2.13;;;15.50;99.90;;;;;;6264542;22;20247;-76
2021/05/27 11:30:20;;;;;;;13.47;3.00;;;15.60;99.90;;;;;;6265019;22;20283;-78
2021/05/27 11:32:49;;;;;;;8.43;2.77;;;15.30;99.90;;;;;;6263708;22;20169;-78
2021/05/27 11:35:17;;;;;;;7.00;2.53;;;15.10;99.90;;;;;;6264014;22;20549;-77
2021/05/27 11:37:44;;;;;;;9.50;2.20;;;15.30;99.90;;;;;;6264427;22;20175;-81
2021/05/27 11:40:13;;;;;;;7.03;2.17;;;15.40;99.90;;;;;;6265917;22;20173;-78
2021/05/27 11:42:40;;;;;;;10.83;2.63;;;15.40;99.90;;;;;;6265254;22;20176;-76
2021/05/27 11:45:08;;;;;;;11.83;2.67;;;15.30;99.90;;;;;;6266475;22;20670;-77
2021/05/27 11:47:35;;;;;;;14.47;3.87;;;15.30;99.90;;;;;;6265729;22;20223;-81
2021/05/27 11:50:05;;;;;;;8.63;2.53;;;15.10;99.90;;;;;;6265549;22;20619;-77
2021/05/27 11:52:31;;;;;;;11.87;2.60;;;14.90;99.90;;;;;;6266389;22;20187;-76
2021/05/27 11:54:57;;;;;;;10.80;2.53;;;14.70;99.90;;;;;;6266401;22;20165;-78
2021/05/27 11:57:42;;;;;;;7.50;2.67;;;14.80;99.90;;;;;;6265560;22;20171;-81
2021/05/27 12:00:09;;;;;;;7.03;2.50;;;14.80;99.90;;;;;;6265672;22;20167;-82
2021/05/27 12:02:43;;;;;;;8.63;2.13;;;14.70;99.90;;;;;;6265290;22;20679;-78
2021/05/27 12:05:21;;;;;;;8.00;2.90;;;14.70;99.90;;;;;;6266648;22;20189;-79
2021/05/27 12:07:59;;;;;;;11.03;2.70;;;14.70;99.90;;;;;;6267070;22;20172;-87
2021/05/27 12:10:26;;;;;;;8.57;2.80;;;14.70;99.90;;;;;;6264446;22;20190;-82
2021/05/27 12:12:52;;;;;;;9.87;2.50;;;14.60;99.90;;;;;;6267127;22;20191;-77
2021/05/27 12:15:21;;;;;;;8.20;2.10;;;14.50;99.90;;;;;;6267045;22;20169;-85
2021/05/27 12:17:49;;;;;;;5.97;2.63;;;14.40;99.90;;;;;;6267144;22;20181;-82
2021/05/27 12:20:19;;;;;;;9.90;2.37;;;14.30;99.90;;;;;;6267946;22;20176;-85
2021/05/27 12:22:52;;;;;;;11.67;2.77;;;14.20;99.90;;;;;;6267837;22;20541;-82
2021/05/27 12:25:21;;;;;;;11.80;3.17;;;14.20;99.90;;;;;;6267128;22;20279;-84
2021/05/27 12:27:49;;;;;;;12.27;3.03;;;14.20;99.90;;;;;;6268559;22;20169;-81
2021/05/27 12:30:22;;;;;;;9.67;2.77;;;14.30;99.90;;;;;;6268478;22;20180;-84
2021/05/27 12:32:50;;;;;;;8.43;2.67;;;14.30;99.90;;;;;;6268343;22;20835;-79
2021/05/27 12:35:23;;;;;;;13.87;3.60;;;14.30;99.90;;;;;;6267637;22;20250;-81
2021/05/27 12:37:54;;;;;;;9.17;2.70;;;14.30;99.90;;;;;;6267642;22;20169;-80
2021/05/27 12:40:25;;;;;;;13.20;3.83;;;14.30;99.90;;;;;;6267804;22;20617;-80
2021/05/27 12:42:53;;;;;;;11.13;3.00;;;14.40;99.90;;;;;;6267638;22;20560;-80
2021/05/27 12:45:27;;;;;;;9.67;3.93;;;14.40;99.90;;;;;;6267428;22;20201;-82
2021/05/27 12:48:18;;;;;;;11.17;3.00;;;14.70;99.90;;;;;;6266925;22;20159;-81